Benson, Arizona
Current Conditions -  °F | °C
As of 12:56 PM on Saturday 25 Oct 2014 (Local Time) from KALK Reporting Station
Few Clouds Few Clouds  
Wind Chill: 82°   Ceiling: Unl
Heat Index: 82°   Visibility: 10mi
Dew Point: 44°   Wind: 3mph
Humidity: 26%   Direction: NA
Pressure: 30.23"   Gusts: NA
Location:  31.97°N, 110.29°W
Report Text: KALK 251956Z AUTO VRB03KT 10SM FEW080 28/07 A3023 RMK AO2 SLP143 T02780067 TSNO
Loading
Personal Weather Stations






























Interactive Weather Map
Tropical Storm Tracking
New forecast layout! Learn more

10-Day Weather Forecast

Advertisements
Track Severe Weather on mobile